• Join FlightAware (Why Join?)
  • Login
  • US Flag 
10:27AM EST


 

Airport Tracker/Info


-or-


 

Live Flight TrackerFlight Track Log ✈ KAL243 ✈ 09-Jun-2013 ✈ KATL - KDFW

Flight Track Log - Related Links

Times and Time Zones

All times are in EDT time to prevent confusion due to time zone crossing. See the KAL243 flight status page for this flight to view local times or setup timezone preferences in your user account.

Time Position Orientation Groundspeed Altitude Reporting Facility
EDT Latitude Longitude Course Direction KTS MPH feet Rate Location/Type
03:17AM 33.6280 -84.4290 75° East 20 23  Level FlightAware
03:18AM 33.6290 -84.4290 360° North 15 17 84 Level FlightAware
03:18AM 33.6300 -84.4290 360° North 16 18 91 Level FlightAware
03:19AM 33.6310 -84.4300 320° Northwest 16 18 94 Level FlightAware
03:20AM 33.6310 -84.4310 270° West 23 26 105 Level FlightAware
03:21AM 33.6300 -84.4330 239° Southwest 25 29 115 Level FlightAware
03:21AM 33.6290 -84.4330 180° South 15 17 127 Level FlightAware
03:22AM 33.6270 -84.4330 180° South 17 20 132 Level FlightAware
03:22AM 33.6240 -84.4330 180° South 18 21 142 Level FlightAware
03:23AM 33.6220 -84.4330 180° South 19 22 159 Level FlightAware
03:23AM 33.6220 -84.4310 90° East 30 35 179 Level FlightAware
03:24AM 33.6220 -84.4290 90° East 15 17 197 Level FlightAware
03:24AM 33.6220 -84.4280 90° East 16 18 225 Level FlightAware
03:25AM 33.6220 -84.4240 90° East 27 31 237 Level FlightAware
03:25AM 33.6220 -84.4220 90° East 15 17 290 Level FlightAware
03:26AM 33.6220 -84.4190 90° East 10 12 365 Level FlightAware
03:27AM 33.6220 -84.4180 90° East 19 22 474 Level FlightAware
03:27AM 33.6210 -84.4180 180° South 22 25 675 Level FlightAware
03:27AM 33.6200 -84.4190 220° Southwest 22 25 964 Level FlightAware
03:28AM 33.6200 -84.4280 270° West 119 137 900 1,714 Climbing FlightAware
03:28AM 33.6210 -84.4540 273° West 164 189 1,600 1,745 Climbing FlightAware
03:29AM 33.6170 -84.4740 257° West 166 191 2,500 1,929 Climbing FlightAware
03:29AM 33.6100 -84.4980 251° West 173 199 3,400 1,925 Climbing FlightAware
03:30AM 33.6040 -84.5210 253° West 179 206 4,200 1,500 Climbing FlightAware
03:30AM 33.5910 -84.5620 249° West 236 272 4,800 1,269 Climbing FlightAware
03:31AM 33.5860 -84.5880 257° West 266 306 5,300 2,679 Climbing FlightAware
03:31AM 33.5920 -84.6420 278° West 278 320 7,300 3,375 Climbing FlightAware
03:32AM 33.5980 -84.6840 280° West 282 325 8,900 3,088 Climbing FlightAware
03:32AM 33.6070 -84.7480 280° West 303 349 10,800 2,341 Climbing FlightAware
03:33AM 33.6160 -84.8240 278° West 353 406 12,100 2,071 Climbing FlightAware
03:34AM 33.6230 -84.9100 276° West 381 438 13,700 2,927 Climbing FlightAware
03:34AM 33.6220 -84.9950 269° West 389 448 16,100 3,143 Climbing FlightAware
03:35AM 33.6200 -85.0930 269° West 411 473 18,100 2,929 Climbing FlightAware
03:36AM 33.6200 -85.1820 270° West 414 476 20,200 3,000 Climbing FlightAware
03:37AM 33.6190 -85.2800 269° West 421 484 22,200 2,721 Climbing FlightAware
03:37AM 33.6170 -85.3840 269° West 431 496 24,100 2,786 Climbing FlightAware
03:38AM 33.6160 -85.4800 269° West 428 493 26,100 2,571 Climbing FlightAware
03:39AM 33.6140 -85.5850 269° West 437 503 27,700 2,022 Climbing FlightAware
03:39AM 33.6120 -85.6940 269° West 448 516 29,100 1,852 Climbing FlightAware
03:40AM 33.6110 -85.7830 269° West 455 524 30,200 1,800 Climbing FlightAware
03:41AM 33.6085 -85.8988 269° West 464 534 31,500 2,214 Climbing FlightAware ADS-B
03:41AM 33.6066 -85.9982 269° West 460 529 33,300 2,620 Climbing FlightAware ADS-B
03:42AM 33.6050 -86.0770 269° West 447 514 34,600 2,063 Climbing FlightAware ADS-B
03:42AM 33.6033 -86.1566 269° West 445 512 35,500 1,292 Climbing FlightAware ADS-B
03:43AM 33.6016 -86.2370 269° West 446 513 36,000 476 Climbing FlightAware ADS-B
03:44AM 33.6000 -86.3140 269° West 446 513 36,000  Level FlightAware
03:44AM 33.5980 -86.4180 269° West 444 511 36,000  Level FlightAware
03:45AM 33.5940 -86.5590 268° West 444 511 36,000  Level FlightAware
03:46AM 33.5920 -86.6500 269° West 444 511 36,000  Level FlightAware
03:47AM 33.5890 -86.7610 268° West 443 510 36,000  Level FlightAware
03:47AM 33.5870 -86.8850 269° West 445 512 36,000  Level FlightAware
03:48AM 33.5820 -87.0280 268° West 446 513 36,000  Level FlightAware
03:49AM 33.5800 -87.1040 268° West 446 513 36,000  Level FlightAware
03:50AM 33.5770 -87.2050 268° West 446 513 36,000  Level FlightAware
03:50AM 33.5750 -87.2810 268° West 446 513 36,000  Level FlightAware
03:51AM 33.5720 -87.3770 268° West 446 513 36,000  Level FlightAware
03:52AM 33.5700 -87.4530 268° West 446 513 36,000  Level FlightAware
03:53AM 33.5670 -87.5540 268° West 446 513 36,000  Level FlightAware
03:53AM 33.5650 -87.6300 268° West 446 513 36,000  Level FlightAware
03:54AM 33.5620 -87.7330 268° West 446 513 36,000  Level FlightAware
03:55AM 33.5590 -87.8090 267° West 446 513 36,000  Level FlightAware
03:55AM 33.5560 -87.9100 268° West 446 513 36,000  Level FlightAware
03:56AM 33.5540 -87.9880 268° West 446 513 36,000  Level FlightAware
03:57AM 33.5510 -88.0910 268° West 446 513 36,000  Level FlightAware
03:57AM 33.5490 -88.1680 268° West 446 513 36,000  Level FlightAware
03:59AM 33.5294 -88.5581 268° West 456 525 36,000  Level Memphis Center
04:00AM 33.5253 -88.7100 268° West 456 525 36,000  Level Memphis Center
04:01AM 33.5186 -88.8622 267° West 456 525 36,000  Level Memphis Center
04:02AM 33.5122 -89.0144 267° West 461 531 36,000  Level Memphis Center
04:03AM 33.5053 -89.1664 267° West 466 536 36,000  Level Memphis Center
04:04AM 33.5006 -89.3208 268° West 460 529 36,000  Level Memphis Center
04:05AM 33.4933 -89.4706 267° West 460 529 36,000  Level Memphis Center
04:06AM 33.4839 -89.6250 266° West 460 529 36,000  Level Memphis Center
04:07AM 33.4764 -89.7744 267° West 460 529 36,000  Level Memphis Center
04:08AM 33.4686 -89.9264 267° West 460 529 36,000  Level Memphis Center
04:09AM 33.4628 -90.0633 267° West 460 529 36,000  Level Memphis Center
04:10AM 33.4525 -90.2153 265° West 460 529 36,000  Level Memphis Center
04:11AM 33.4442 -90.3622 266° West 460 529 36,000  Level Memphis Center
04:12AM 33.4358 -90.5142 266° West 460 529 36,000  Level Memphis Center
04:13AM 33.4378 -90.6608 271° West 460 529 36,000  Level Memphis Center
04:14AM 33.4936 -90.8006 296° West 448 516 36,000  Level Memphis Center
04:15AM 33.5536 -90.9381 298° West 459 528 36,000  Level Memphis Center
04:16AM 33.6092 -91.0756 296° West 459 528 36,000  Level Memphis Center
04:17AM 33.6689 -91.2183 297° West 464 534 36,000  Level Memphis Center
04:18AM 33.7181 -91.3586 293° West 464 534 36,000  Level Memphis Center
04:19AM 33.7144 -91.5108 268° West 448 516 36,000  Level Memphis Center
04:21AM 33.6864 -91.8372 264° West 472 543 36,000  Level Fort Worth Center
04:22AM 33.6722 -91.9878 264° West 472 543 36,000  Level Fort Worth Center
04:23AM 33.6472 -92.1364 259° West 466 536 36,000  Level Fort Worth Center
04:24AM 33.6283 -92.2847 261° West 461 531 36,000  Level Fort Worth Center
04:25AM 33.6072 -92.4356 261° West 461 531 36,000  Level Fort Worth Center
04:26AM 33.5881 -92.5839 261° West 461 531 36,000  Level Fort Worth Center
04:27AM 33.5667 -92.7344 260° West 461 531 36,000  Level Fort Worth Center
04:33AM 33.4420 -93.6060 260° West 456 525 36,000  Level FlightAware
04:33AM 33.4260 -93.7190 260° West 456 525 36,000  Level FlightAware
04:34AM 33.4100 -93.8230 260° West 456 525 36,000  Level FlightAware
04:35AM 33.3990 -93.8990 260° West 456 525 36,000  Level FlightAware
04:36AM 33.3770 -94.0520 260° West 454 522 36,000  Level FlightAware
04:36AM 33.3600 -94.1640 260° West 455 524 36,000  Level FlightAware
04:37AM 33.3450 -94.2650 260° West 455 524 36,000  Level FlightAware
04:37AM 33.3382 -94.3121 260° West 455 524 36,000 -628 Level FlightAware ADS-B
04:38AM 33.3140 -94.4750 260° West 447 514 35,100 -1,056 Descending FlightAware
04:39AM 33.2900 -94.5670 253° West 439 505 34,100 -1,429 Descending FlightAware
04:40AM 33.2320 -94.6470 229° Southwest 431 496 33,100 -935 Descending FlightAware
04:40AM 33.1930 -94.7000 229° Southwest 430 495 32,900 -1,333 Descending FlightAware
04:41AM 33.1230 -94.7970 229° Southwest 422 486 31,100 -2,727 Descending FlightAware
04:42AM 33.0902 -94.8437 230° Southwest 421 484 29,400 -2,500 Descending FlightAware ADS-B
04:42AM 33.0400 -94.9130 229° Southwest 417 480 28,600 -1,317 Descending FlightAware
04:43AM 32.9870 -94.9870 230° Southwest 411 473 27,600 -1,286 Descending FlightAware
04:44AM 32.9370 -95.0570 230° Southwest 406 467 26,800 -1,326 Descending FlightAware
04:44AM 32.8840 -95.1330 230° Southwest 399 459 25,700 -1,586 Descending FlightAware
04:45AM 32.8590 -95.2180 251° West 391 450 24,500 -1,814 Descending FlightAware
04:46AM 32.8440 -95.3100 259° West 387 445 23,100 -1,906 Descending FlightAware
04:47AM 32.8300 -95.3960 259° West 382 440 21,800 -1,756 Descending FlightAware
04:47AM 32.8170 -95.4800 260° West 375 432 20,700 -1,694 Descending FlightAware
04:48AM 32.8030 -95.5680 259° West 368 423 19,400 -1,735 Descending FlightAware
04:49AM 32.7900 -95.6440 259° West 362 417 18,300 -1,723 Descending FlightAware
04:50AM 32.7730 -95.7520 259° West 356 410 16,700 -1,670 Descending FlightAware
04:50AM 32.7600 -95.8310 259° West 349 402 15,600 -1,535 Descending FlightAware
04:51AM 32.7610 -95.9140 271° West 341 392 14,500 -1,341 Descending FlightAware
04:52AM 32.7700 -95.9870 278° West 337 388 13,700 -1,256 Descending FlightAware
04:52AM 32.7810 -96.0710 279° West 333 383 12,700 -1,286 Descending FlightAware
04:53AM 32.7890 -96.1400 278° West 330 380 11,900 -1,200 Descending FlightAware
04:54AM 32.7980 -96.2140 278° West 328 377 11,100 -552 Descending FlightAware
04:55AM 32.8080 -96.2930 279° West 295 339 11,100  Level FlightAware
04:55AM 32.8150 -96.3550 278° West 294 338 11,100 -500 Level FlightAware
04:56AM 32.8350 -96.4230 289° West 289 333 10,400 -1,083 Descending FlightAware
04:56AM 32.8490 -96.4610 294° West 288 331 9,800 -1,309 Descending FlightAware
04:57AM 32.8650 -96.5020 295° West 287 330 9,200 -1,393 Descending FlightAware
04:57AM 32.8800 -96.5410 295° West 285 328 8,500 -1,368 Descending FlightAware
04:58AM 32.8980 -96.5830 297° West 279 321 7,900 -1,179 Descending FlightAware
04:58AM 32.9130 -96.6190 296° West 275 316 7,400 -1,091 Descending FlightAware
04:59AM 32.9290 -96.6560 297° West 271 312 6,900 -1,286 Descending FlightAware
04:59AM 32.9460 -96.6920 299° West 271 312 6,200 -1,358 Descending FlightAware
05:00AM 32.9610 -96.7260 298° West 271 312 5,700 -1,358 Descending FlightAware
05:00AM 32.9790 -96.7630 300° West 274 315 5,000 -1,500 Descending FlightAware
05:00AM 32.9890 -96.7840 300° West 277 319 4,600 -1,067 Descending FlightAware
05:01AM 33.0060 -96.8210 299° West 268 308 4,200 -526 Descending FlightAware
05:01AM 33.0230 -96.8560 300° West 255 293 4,100 -105 Descending FlightAware
05:02AM 33.0400 -96.8920 299° West 241 277 4,100 -107 Level FlightAware
05:02AM 33.0500 -96.9220 292° West 209 241 4,000 -536 Descending FlightAware
05:03AM 33.0550 -96.9520 281° West 195 224 3,600 -792 Descending FlightAware
05:03AM 33.0590 -96.9760 281° West 179 206 3,300 -522 Descending FlightAware
05:04AM 33.0480 -97.0120 250° West 159 183 3,000 -575 Descending FlightAware
05:04AM 33.0310 -97.0240 211° Southwest 144 166 2,600 -545 Descending FlightAware
05:05AM 33.0170 -97.0340 211° Southwest 131 151 2,500 -222 Descending FlightAware
05:05AM 33.0020 -97.0440 209° Southwest 131 151 2,400 -436 Descending FlightAware
05:06AM 32.9870 -97.0510 201° Southwest 133 153 2,100 -783 Descending FlightAware
05:06AM 33.0120 -97.0370 25° Northeast 1,600 -844 Descending FlightAware
05:07AM 32.9497 -97.0569 25° Northeast 137 158 1,200 -828 Descending Fort Worth Center
05:07AM 32.9333 -97.0500 160° South 142 163 800 -750 Descending Dallas / Fort Worth TRACON